Grimstead, Virginia
Current Conditions -  °F | °C
As of 8:55 AM on Monday 24 Nov 2014 (Local Time) from KW75 Reporting Station
Broken Clouds Broken Clouds  
Wind Chill: 67°   Ceiling: 2300
Heat Index: 67°   Visibility: 10mi
Dew Point: 60°   Wind: 16mph
Humidity: 78%   Direction: 210°SSW
Pressure: 29.77"   Gusts: 26mph
Location:  37.5°N, 76.3°W
Report Text: KW75 241355Z AUTO 21014G23KT 10SM BKN023 20/16 A2977 RMK AO1 T01970157
Loading
Personal Weather Stations






























Interactive Weather Map New forecast layout! Learn more

10-Day Weather Forecast

Advertisements
Track Severe Weather on mobile